Time;durP1;ratioP1;P1;durP2;ratioP2;P2;SDS_P1;SDS_P2;PMS_P1;PMS_P2;Temp;Humidity;BMP_temperature;BMP_pressure;BME280_temperature;BME280_humidity;BME280_pressure;Samples;Min_cycle;Max_cycle;Signal;HPM_P1;HPM_P2
2023/12/06 00:01:48;;;;;;;36.92;17.58;;;;;;;7.98;66.47;101241.03;5009888;28;20057;-46
2023/12/06 00:04:14;;;;;;;34.40;17.98;;;;;;;8.14;66.52;101241.50;5010415;28;20029;-45
2023/12/06 00:06:39;;;;;;;34.33;17.98;;;;;;;8.04;67.08;101234.31;5009772;28;20081;-45
2023/12/06 00:09:05;;;;;;;32.60;17.90;;;;;;;8.01;67.57;101236.78;5009451;28;20069;-46
2023/12/06 00:11:30;;;;;;;34.95;18.50;;;;;;;8.04;67.65;101247.28;5010366;28;20034;-47
2023/12/06 00:13:55;;;;;;;37.00;18.50;;;;;;;8.29;66.55;101242.81;5010670;28;20056;-46
2023/12/06 00:16:21;;;;;;;32.97;17.85;;;;;;;8.40;66.42;101244.00;5010091;28;20560;-48
2023/12/06 00:18:48;;;;;;;30.73;17.33;;;;;;;8.38;65.79;101245.69;5009764;28;20034;-45
2023/12/06 00:21:13;;;;;;;33.65;17.80;;;;;;;8.16;67.32;101246.75;5008697;28;20038;-45
2023/12/06 00:23:39;;;;;;;33.38;17.40;;;;;;;8.22;67.06;101251.25;5010146;28;20040;-44
2023/12/06 00:26:05;;;;;;;36.10;18.70;;;;;;;8.33;66.71;101257.66;5009723;28;20378;-44
2023/12/06 00:28:30;;;;;;;36.08;19.20;;;;;;;8.22;67.66;101259.03;5010860;28;20038;-46
2023/12/06 00:30:55;;;;;;;36.22;18.70;;;;;;;8.31;67.43;101261.91;5010003;28;20059;-45
2023/12/06 00:33:21;;;;;;;39.83;19.15;;;;;;;8.25;67.58;101267.78;5011185;28;20124;-45
2023/12/06 00:35:46;;;;;;;32.47;18.15;;;;;;;8.14;67.74;101274.38;5010066;28;20037;-46
2023/12/06 00:38:13;;;;;;;34.50;18.63;;;;;;;8.27;67.48;101273.03;5010605;28;20038;-47
2023/12/06 00:40:39;;;;;;;39.22;19.27;;;;;;;8.04;68.83;101274.97;5009521;28;20054;-46
2023/12/06 00:43:04;;;;;;;35.47;18.20;;;;;;;8.19;68.38;101282.31;5009366;28;20429;-45
2023/12/06 00:45:29;;;;;;;34.72;18.83;;;;;;;8.31;68.05;101274.91;5010034;28;20034;-49
2023/12/06 00:47:55;;;;;;;34.35;18.10;;;;;;;8.37;67.89;101275.97;5009364;28;20035;-47
2023/12/06 00:50:20;;;;;;;35.50;17.67;;;;;;;8.45;67.50;101283.97;5009674;28;20042;-47
2023/12/06 00:52:46;;;;;;;38.45;19.40;;;;;;;8.44;67.52;101282.22;5009556;28;20117;-46
2023/12/06 00:55:11;;;;;;;37.05;19.40;;;;;;;8.13;68.42;101281.28;5009654;28;20034;-47
2023/12/06 00:57:36;;;;;;;35.80;19.40;;;;;;;8.03;69.29;101281.88;5009475;28;20030;-49
2023/12/06 01:00:02;;;;;;;42.17;19.38;;;;;;;7.87;70.25;101287.41;5008823;28;20034;-46
2023/12/06 01:02:27;;;;;;;39.38;19.75;;;;;;;8.10;69.12;101296.81;5009673;28;20088;-47
2023/12/06 01:04:53;;;;;;;39.28;20.23;;;;;;;7.91;70.15;101296.19;5009089;28;20519;-45
2023/12/06 01:07:18;;;;;;;37.58;18.80;;;;;;;7.98;69.85;101301.63;5009574;28;20121;-45
2023/12/06 01:09:44;;;;;;;38.00;20.23;;;;;;;8.05;69.22;101292.31;5008831;28;20025;-47
2023/12/06 01:12:10;;;;;;;40.53;19.63;;;;;;;8.09;69.70;101299.34;5009619;28;20030;-47
2023/12/06 01:14:36;;;;;;;38.88;19.77;;;;;;;8.15;69.07;101294.34;5009663;28;20037;-47
2023/12/06 01:17:01;;;;;;;37.58;19.50;;;;;;;7.83;70.44;101303.75;5009030;28;20389;-47
2023/12/06 01:19:26;;;;;;;37.75;19.13;;;;;;;8.04;70.09;101307.00;5009358;28;20080;-44
2023/12/06 01:21:52;;;;;;;39.28;19.40;;;;;;;8.18;69.46;101310.00;5012464;28;20113;-49
2023/12/06 01:24:17;;;;;;;34.55;18.42;;;;;;;8.28;69.20;101311.16;5013418;28;20030;-45
2023/12/06 01:26:42;;;;;;;39.83;18.90;;;;;;;8.30;69.01;101309.47;5013092;28;20049;-45
2023/12/06 01:29:09;;;;;;;37.97;18.75;;;;;;;8.18;69.05;101297.00;5012571;28;20026;-50
2023/12/06 01:31:34;;;;;;;35.00;18.35;;;;;;;8.00;69.46;101305.13;5012673;28;20034;-47
2023/12/06 01:34:00;;;;;;;39.75;19.75;;;;;;;7.67;70.99;101306.69;5012254;28;20522;-48
2023/12/06 01:36:26;;;;;;;43.83;19.45;;;;;;;7.73;70.54;101314.69;5012743;28;20125;-48
2023/12/06 01:38:51;;;;;;;39.38;19.33;;;;;;;8.00;69.03;101309.44;5012325;28;20164;-48
2023/12/06 01:41:16;;;;;;;42.47;19.65;;;;;;;7.94;68.82;101314.44;5011282;28;20079;-47
2023/12/06 01:43:45;;;;;;;37.08;18.08;;;;;;;7.64;70.42;101319.56;5011492;28;20034;-44
2023/12/06 01:46:11;;;;;;;33.97;17.85;;;;;;;7.86;69.52;101319.41;5012494;28;20120;-45
2023/12/06 01:48:38;;;;;;;43.30;18.48;;;;;;;7.80;69.29;101323.53;5012410;28;20125;-45
2023/12/06 01:51:04;;;;;;;37.08;18.30;;;;;;;7.59;70.72;101328.91;5011831;28;20046;-47
2023/12/06 01:53:31;;;;;;;37.03;18.15;;;;;;;7.75;70.28;101332.03;5012785;28;20128;-46
2023/12/06 01:55:56;;;;;;;34.25;17.88;;;;;;;7.86;69.56;101339.31;5012216;28;20109;-44
2023/12/06 01:58:22;;;;;;;35.72;18.30;;;;;;;7.66;70.39;101336.06;5012424;28;20034;-46
2023/12/06 02:00:48;;;;;;;37.45;19.45;;;;;;;7.74;71.18;101337.22;5011989;28;20026;-44
2023/12/06 02:03:15;;;;;;;35.50;19.30;;;;;;;7.86;70.79;101340.19;5012421;28;20142;-47
2023/12/06 02:05:40;;;;;;;40.60;18.98;;;;;;;7.83;71.39;101340.06;5012392;28;20527;-43
2023/12/06 02:08:06;;;;;;;34.67;18.55;;;;;;;7.88;71.40;101343.69;5011937;28;20033;-46
2023/12/06 02:10:31;;;;;;;35.20;17.80;;;;;;;7.74;71.70;101348.44;5012249;28;20125;-47
2023/12/06 02:12:56;;;;;;;36.80;18.67;;;;;;;7.87;72.03;101352.31;5012504;28;20038;-45
2023/12/06 02:15:22;;;;;;;33.53;17.67;;;;;;;8.00;71.90;101354.47;5013177;28;20048;-48
2023/12/06 02:17:49;;;;;;;30.58;16.90;;;;;;;8.00;72.26;101353.56;5012494;28;20044;-46
2023/12/06 02:20:15;;;;;;;33.38;17.33;;;;;;;8.11;71.91;101349.63;5013698;28;20084;-47
2023/12/06 02:22:41;;;;;;;34.15;16.88;;;;;;;8.41;71.31;101347.09;5014715;28;20030;-46
2023/12/06 02:25:15;;;;;;;31.65;16.25;;;;;;;8.53;70.44;101347.47;5013748;28;20584;-44
2023/12/06 02:27:43;;;;;;;28.17;15.45;;;;;;;8.62;70.49;101352.91;5017991;28;20101;-43
2023/12/06 02:30:09;;;;;;;26.92;14.20;;;;;;;8.64;70.51;101356.44;5018395;28;20099;-46
2023/12/06 02:32:35;;;;;;;27.83;14.35;;;;;;;8.71;70.66;101360.97;5016340;28;20045;-43
2023/12/06 02:35:03;;;;;;;25.48;13.85;;;;;;;8.68;70.92;101365.19;5012326;28;20053;-43
2023/12/06 02:37:29;;;;;;;25.25;12.48;;;;;;;8.75;70.84;101378.41;5012753;28;20026;-46
2023/12/06 02:39:56;;;;;;;22.77;12.50;;;;;;;8.76;71.08;101374.09;5012312;28;20042;-50
2023/12/06 02:42:21;;;;;;;22.92;13.13;;;;;;;8.72;71.13;101360.13;5012486;28;20071;-44
2023/12/06 02:44:46;;;;;;;23.10;12.75;;;;;;;8.87;70.83;101364.88;5012824;28;20034;-44
2023/12/06 02:47:12;;;;;;;24.42;12.35;;;;;;;8.59;71.56;101368.44;5012577;28;20030;-44
2023/12/06 02:49:38;;;;;;;20.50;11.57;;;;;;;8.53;71.92;101381.25;5012566;28;20109;-44
2023/12/06 02:52:03;;;;;;;19.38;10.82;;;;;;;8.70;71.30;101372.22;5011258;28;20381;-47
2023/12/06 02:54:29;;;;;;;19.65;10.48;;;;;;;8.39;72.16;101364.34;5011625;28;20034;-44
2023/12/06 02:56:54;;;;;;;19.35;10.48;;;;;;;8.52;71.91;101359.56;5009892;28;20193;-47
2023/12/06 02:59:19;;;;;;;20.50;10.73;;;;;;;8.15;72.42;101357.56;5011656;28;20036;-44
2023/12/06 03:01:46;;;;;;;16.85;10.18;;;;;;;8.30;72.61;101362.34;5010967;28;20029;-45
2023/12/06 03:04:12;;;;;;;17.50;10.20;;;;;;;8.68;71.50;101363.47;5011120;28;20042;-46
2023/12/06 03:06:37;;;;;;;18.52;10.18;;;;;;;8.55;71.21;101358.75;5011061;28;20116;-44
2023/12/06 03:09:03;;;;;;;18.30;9.95;;;;;;;8.59;71.34;101357.16;5010693;28;20538;-45
2023/12/06 03:11:28;;;;;;;17.83;10.32;;;;;;;8.60;71.95;101358.91;5011122;28;20038;-45
2023/12/06 03:13:53;;;;;;;17.83;10.30;;;;;;;8.64;71.89;101355.56;5010829;28;20444;-46
2023/12/06 03:16:18;;;;;;;20.08;10.73;;;;;;;8.55;71.60;101363.97;5012237;28;20050;-46
2023/12/06 03:18:44;;;;;;;20.42;10.50;;;;;;;8.50;71.48;101366.44;5014643;28;20026;-51
2023/12/06 03:21:09;;;;;;;21.38;10.50;;;;;;;8.53;72.09;101365.66;5016759;28;20096;-44
2023/12/06 03:23:34;;;;;;;21.30;10.75;;;;;;;8.83;71.17;101369.13;5017521;28;20026;-50
2023/12/06 03:26:00;;;;;;;16.48;9.98;;;;;;;8.94;70.14;101366.81;5012773;28;20388;-47
2023/12/06 03:28:25;;;;;;;18.52;9.73;;;;;;;8.99;70.40;101369.53;5016071;28;20034;-45
2023/12/06 03:30:50;;;;;;;19.85;11.10;;;;;;;8.85;70.36;101366.53;5021651;28;20041;-49
2023/12/06 03:33:16;;;;;;;20.15;10.23;;;;;;;9.00;70.03;101366.09;5024872;28;20049;-44
2023/12/06 03:35:41;;;;;;;19.60;11.07;;;;;;;9.02;70.13;101369.66;5013489;28;20476;-45
2023/12/06 03:38:06;;;;;;;22.52;11.65;;;;;;;8.89;70.43;101371.91;5010556;28;20571;-44
2023/12/06 03:40:32;;;;;;;23.55;12.25;;;;;;;8.96;70.25;101367.75;5010575;28;20085;-44
2023/12/06 03:42:57;;;;;;;22.10;12.82;;;;;;;8.93;70.52;101373.75;5017696;28;20029;-49
2023/12/06 03:45:22;;;;;;;27.35;13.50;;;;;;;8.60;71.53;101367.56;5010634;28;20040;-43
2023/12/06 03:47:47;;;;;;;29.73;13.50;;;;;;;8.60;71.60;101374.50;5009920;28;20088;-46
2023/12/06 03:50:13;;;;;;;24.27;13.25;;;;;;;8.73;71.26;101368.81;5010103;28;20030;-44
2023/12/06 03:52:38;;;;;;;27.73;13.27;;;;;;;8.95;70.33;101373.78;5010698;28;20033;-44
2023/12/06 03:55:04;;;;;;;23.77;12.52;;;;;;;9.01;70.17;101379.16;5009901;28;20496;-48
2023/12/06 03:57:29;;;;;;;23.02;12.05;;;;;;;8.87;70.13;101378.75;5010289;28;20034;-44
2023/12/06 03:59:54;;;;;;;25.27;12.23;;;;;;;8.79;69.88;101377.66;5009700;28;20504;-48
2023/12/06 04:02:20;;;;;;;28.20;12.05;;;;;;;8.71;69.90;101380.91;5010374;28;20037;-46
2023/12/06 04:04:45;;;;;;;26.88;12.52;;;;;;;8.69;68.46;101385.16;5009836;28;20045;-45
2023/12/06 04:07:11;;;;;;;25.55;12.68;;;;;;;8.46;68.74;101384.50;5010444;28;20163;-45
2023/12/06 04:09:36;;;;;;;25.65;12.07;;;;;;;8.81;68.22;101383.78;5010148;28;20033;-49
2023/12/06 04:12:02;;;;;;;21.67;11.40;;;;;;;9.11;66.79;101388.09;5009450;28;20049;-45
2023/12/06 04:14:27;;;;;;;24.17;11.77;;;;;;;9.11;66.49;101393.28;5010140;28;20531;-44
2023/12/06 04:16:53;;;;;;;26.27;11.82;;;;;;;9.22;65.34;101399.66;5009478;28;20045;-46
2023/12/06 04:19:18;;;;;;;22.67;11.43;;;;;;;9.22;65.81;101405.75;5009889;28;20038;-49
2023/12/06 04:21:44;;;;;;;21.58;11.13;;;;;;;9.27;65.12;101406.75;5009639;28;20030;-45
2023/12/06 04:24:09;;;;;;;21.08;11.35;;;;;;;9.13;65.32;101410.72;5010119;28;20053;-46
2023/12/06 04:26:34;;;;;;;25.52;10.95;;;;;;;9.12;65.31;101408.94;5009712;28;20034;-46
2023/12/06 04:29:00;;;;;;;22.70;11.18;;;;;;;8.99;64.93;101404.22;5009662;28;20030;-47
2023/12/06 04:31:25;;;;;;;24.83;10.77;;;;;;;8.84;64.89;101404.66;5010129;28;20061;-47
2023/12/06 04:33:50;;;;;;;20.98;10.90;;;;;;;9.02;64.42;101406.06;5009778;28;20496;-46
2023/12/06 04:36:16;;;;;;;19.88;9.70;;;;;;;9.00;64.19;101398.19;5009244;28;20403;-45
2023/12/06 04:38:41;;;;;;;23.67;10.13;;;;;;;9.05;63.62;101403.53;5010088;28;20045;-47
2023/12/06 04:41:07;;;;;;;26.75;10.27;;;;;;;8.85;64.26;101409.03;5011081;28;20038;-45
2023/12/06 04:43:33;;;;;;;22.58;10.15;;;;;;;9.16;63.39;101409.91;5011135;28;20034;-45
2023/12/06 04:45:59;;;;;;;21.58;9.57;;;;;;;9.09;62.93;101410.59;5009460;28;20038;-45
2023/12/06 04:48:24;;;;;;;20.73;10.05;;;;;;;9.14;63.29;101414.19;5008665;28;20042;-47
2023/12/06 04:50:50;;;;;;;19.17;9.07;;;;;;;8.93;62.53;101417.06;5009206;28;20042;-47
2023/12/06 04:53:15;;;;;;;22.23;8.70;;;;;;;9.31;61.44;101429.44;5010020;28;20042;-45
2023/12/06 04:55:40;;;;;;;17.73;8.40;;;;;;;9.26;61.32;101423.22;5010375;28;20040;-47
2023/12/06 04:58:06;;;;;;;19.88;8.18;;;;;;;9.28;60.81;101418.03;5013198;28;20091;-45
2023/12/06 05:00:31;;;;;;;20.05;8.00;;;;;;;9.39;60.42;101420.94;5013642;28;20053;-46
2023/12/06 05:02:56;;;;;;;16.70;8.32;;;;;;;9.38;60.25;101421.78;5013493;28;20091;-48
2023/12/06 05:05:22;;;;;;;14.77;7.95;;;;;;;9.54;60.16;101440.44;5013410;28;20053;-46
2023/12/06 05:07:47;;;;;;;18.00;8.20;;;;;;;9.28;60.12;101436.25;5013199;28;20064;-45
2023/12/06 05:10:12;;;;;;;17.08;8.20;;;;;;;9.11;60.28;101435.78;5013782;28;20061;-48
2023/12/06 05:12:38;;;;;;;16.27;8.02;;;;;;;9.55;59.11;101446.53;5013553;28;20046;-46
2023/12/06 05:15:04;;;;;;;20.83;8.10;;;;;;;9.44;58.59;101442.75;5013897;28;20038;-46
2023/12/06 05:17:29;;;;;;;15.52;8.00;;;;;;;9.50;58.50;101442.94;5013511;28;20407;-47
2023/12/06 05:19:55;;;;;;;17.45;7.60;;;;;;;9.40;58.24;101441.78;5012870;28;20033;-45
2023/12/06 05:22:20;;;;;;;17.02;7.53;;;;;;;9.31;58.24;101434.63;5013354;28;20120;-46
2023/12/06 05:24:46;;;;;;;18.17;7.18;;;;;;;9.53;56.91;101443.00;5012751;28;20030;-46
2023/12/06 05:27:11;;;;;;;14.18;6.53;;;;;;;9.46;56.47;101447.16;5013121;28;20080;-48
2023/12/06 05:29:37;;;;;;;16.38;7.00;;;;;;;9.68;55.85;101446.03;5013286;28;20710;-46
2023/12/06 05:32:03;;;;;;;13.93;6.20;;;;;;;9.68;55.87;101448.63;5013050;28;20120;-45
2023/12/06 05:34:28;;;;;;;14.07;6.47;;;;;;;9.63;56.23;101442.41;5013506;28;20037;-47
2023/12/06 05:36:53;;;;;;;18.23;6.22;;;;;;;9.42;55.83;101447.91;5012565;28;20057;-45
2023/12/06 05:39:19;;;;;;;14.75;6.22;;;;;;;9.60;56.05;101451.00;5013366;28;20038;-44
2023/12/06 05:41:44;;;;;;;15.48;6.60;;;;;;;9.59;55.86;101453.56;5013482;28;20106;-50
2023/12/06 05:44:09;;;;;;;12.88;6.50;;;;;;;9.55;55.56;101452.63;5013641;28;20066;-44
2023/12/06 05:46:35;;;;;;;12.57;6.22;;;;;;;9.52;55.34;101455.13;5012273;28;20050;-45
2023/12/06 05:49:00;;;;;;;18.02;6.90;;;;;;;9.43;55.98;101460.09;5012334;28;20515;-49
2023/12/06 05:51:25;;;;;;;14.98;6.65;;;;;;;9.52;55.75;101460.34;5012465;28;20038;-45
2023/12/06 05:53:51;;;;;;;13.00;6.25;;;;;;;9.65;56.04;101462.44;5012069;28;20088;-47
2023/12/06 05:56:17;;;;;;;16.30;7.63;;;;;;;9.59;56.26;101469.19;5012715;28;20034;-48
2023/12/06 05:58:42;;;;;;;15.38;7.35;;;;;;;9.51;56.49;101474.22;5012218;28;20042;-46
2023/12/06 06:01:08;;;;;;;17.83;7.70;;;;;;;9.48;56.86;101473.22;5012114;28;20033;-47
2023/12/06 06:03:33;;;;;;;14.88;7.25;;;;;;;9.46;56.29;101478.38;5013128;28;20126;-48
2023/12/06 06:06:06;;;;;;;14.35;7.47;;;;;;;9.26;56.12;101485.66;5011602;28;20045;-49
2023/12/06 06:08:33;;;;;;;18.00;7.53;;;;;;;9.15;56.05;101484.44;5012704;28;20045;-45
2023/12/06 06:10:58;;;;;;;17.38;7.70;;;;;;;8.97;57.04;101483.91;5011462;28;20034;-45
2023/12/06 06:13:28;;;;;;;14.50;7.85;;;;;;;8.84;57.89;101482.66;5012086;28;20408;-46
2023/12/06 06:15:54;;;;;;;16.48;7.05;;;;;;;9.01;56.55;101483.19;5011745;28;20412;-51
2023/12/06 06:18:19;;;;;;;16.77;7.40;;;;;;;8.91;56.70;101486.34;5012467;28;20045;-49
2023/12/06 06:20:45;;;;;;;16.90;6.80;;;;;;;8.80;56.89;101480.81;5011584;28;20309;-49
2023/12/06 06:23:11;;;;;;;17.90;7.80;;;;;;;8.63;56.98;101479.44;5012187;28;20100;-48
2023/12/06 06:25:36;;;;;;;17.13;8.65;;;;;;;8.45;57.57;101482.34;5010925;28;20038;-46
2023/12/06 06:28:02;;;;;;;18.13;8.88;;;;;;;8.30;57.89;101491.31;5011643;28;20565;-47
2023/12/06 06:30:27;;;;;;;15.07;8.15;;;;;;;8.17;58.72;101492.66;5011755;28;20104;-44
2023/12/06 06:32:53;;;;;;;18.70;9.23;;;;;;;8.09;58.60;101497.59;5011298;28;20038;-45
2023/12/06 06:35:18;;;;;;;17.63;8.25;;;;;;;7.96;59.35;101497.13;5013791;28;20481;-47
2023/12/06 06:37:43;;;;;;;18.95;8.90;;;;;;;7.91;59.26;101496.97;5014535;28;20069;-45
2023/12/06 06:40:10;;;;;;;18.17;9.65;;;;;;;7.77;59.60;101494.72;5017209;28;20022;-46
2023/12/06 06:42:35;;;;;;;17.33;9.23;;;;;;;7.58;60.93;101503.56;5019299;28;20077;-46
2023/12/06 06:45:02;;;;;;;18.88;8.95;;;;;;;7.51;60.69;101505.06;5015140;28;20038;-47
2023/12/06 06:47:27;;;;;;;18.50;8.73;;;;;;;7.45;60.62;101510.03;5014207;28;20038;-45
2023/12/06 06:49:56;;;;;;;18.20;8.73;;;;;;;7.44;60.85;101523.84;5012928;28;20030;-48
2023/12/06 06:52:21;;;;;;;21.20;9.02;;;;;;;7.42;61.47;101515.13;5012228;28;20037;-46
2023/12/06 06:54:47;;;;;;;19.60;10.20;;;;;;;7.37;61.77;101514.09;5011298;28;20034;-50
2023/12/06 06:57:12;;;;;;;22.08;9.45;;;;;;;7.31;62.37;101512.16;5011046;28;20033;-48
2023/12/06 06:59:38;;;;;;;19.60;9.85;;;;;;;7.36;62.15;101514.91;5011336;28;20117;-45
2023/12/06 07:02:04;;;;;;;22.67;9.68;;;;;;;7.35;62.22;101515.72;5010696;28;20046;-49
2023/12/06 07:04:31;;;;;;;21.42;10.32;;;;;;;7.32;62.33;101511.31;5010893;28;20080;-47
2023/12/06 07:06:56;;;;;;;20.88;11.18;;;;;;;7.14;63.80;101518.41;5010680;28;20500;-46
2023/12/06 07:09:22;;;;;;;24.23;11.45;;;;;;;7.16;63.56;101516.75;5011299;28;20041;-48
2023/12/06 07:11:47;;;;;;;24.65;11.43;;;;;;;7.09;63.98;101530.31;5010881;28;20064;-44
2023/12/06 07:14:13;;;;;;;23.80;11.55;;;;;;;7.16;63.77;101536.63;5008490;28;20068;-46
2023/12/06 07:16:38;;;;;;;23.65;11.65;;;;;;;7.19;63.64;101539.34;5011200;28;20238;-46
2023/12/06 07:19:04;;;;;;;22.88;10.90;;;;;;;7.03;65.29;101544.75;5011249;28;20388;-50
2023/12/06 07:21:29;;;;;;;22.83;10.10;;;;;;;7.12;64.43;101550.31;5015709;28;20030;-45
2023/12/06 07:23:54;;;;;;;21.15;10.63;;;;;;;7.11;63.86;101549.44;5018169;28;20030;-48
2023/12/06 07:26:20;;;;;;;25.85;10.68;;;;;;;7.14;63.96;101559.91;5018642;28;20026;-45
2023/12/06 07:28:45;;;;;;;21.17;9.80;;;;;;;7.07;63.88;101549.25;5020140;28;20065;-47
2023/12/06 07:31:11;;;;;;;18.77;9.32;;;;;;;7.06;63.78;101555.25;5015848;28;20041;-45
2023/12/06 07:33:39;;;;;;;21.90;9.65;;;;;;;6.99;64.39;101561.91;5010954;28;20114;-46
2023/12/06 07:36:05;;;;;;;18.77;9.02;;;;;;;6.97;64.41;101557.47;5009708;28;20432;-47
2023/12/06 07:38:30;;;;;;;20.05;9.13;;;;;;;7.02;64.19;101555.94;5010725;28;20081;-45
2023/12/06 07:40:56;;;;;;;16.67;8.82;;;;;;;6.96;64.34;101564.38;5009679;28;20072;-45
2023/12/06 07:43:22;;;;;;;21.05;8.77;;;;;;;6.98;64.04;101567.03;5010483;28;20029;-47
2023/12/06 07:45:48;;;;;;;16.52;8.23;;;;;;;7.00;64.57;101561.09;5010200;28;20033;-44
2023/12/06 07:48:13;;;;;;;16.02;8.48;;;;;;;7.02;64.81;101561.13;5010447;28;20042;-44
2023/12/06 07:50:38;;;;;;;17.58;8.65;;;;;;;7.04;65.11;101564.69;5010231;28;20176;-45
2023/12/06 07:53:03;;;;;;;15.07;7.95;;;;;;;7.09;65.25;101570.91;5008677;28;20041;-48
2023/12/06 07:55:29;;;;;;;15.68;8.30;;;;;;;7.17;65.45;101573.00;5010245;28;20044;-49
2023/12/06 07:57:54;;;;;;;16.38;8.32;;;;;;;7.36;65.78;101574.56;5010208;28;20026;-47
2023/12/06 08:00:20;;;;;;;18.60;8.77;;;;;;;7.48;65.91;101576.72;5010360;28;20455;-49
2023/12/06 08:02:45;;;;;;;16.63;8.23;;;;;;;7.56;66.10;101570.97;5010329;28;20044;-48
2023/12/06 08:05:11;;;;;;;18.25;8.80;;;;;;;7.58;66.15;101576.22;5010212;28;20068;-44
2023/12/06 08:07:39;;;;;;;16.25;9.10;;;;;;;7.64;65.90;101579.94;5010321;28;20045;-49
2023/12/06 08:10:12;;;;;;;20.08;9.15;;;;;;;7.79;66.07;101583.94;5009848;28;20046;-47
2023/12/06 08:12:38;;;;;;;18.63;8.95;;;;;;;7.99;65.92;101580.34;5010646;28;20511;-45
2023/12/06 08:15:08;;;;;;;16.98;8.57;;;;;;;7.91;65.75;101577.47;5009926;28;20038;-46
2023/12/06 08:17:33;;;;;;;17.30;8.32;;;;;;;7.97;65.80;101588.06;5010513;28;20030;-45
2023/12/06 08:19:59;;;;;;;17.30;9.00;;;;;;;7.97;65.71;101592.38;5009970;28;20030;-49
2023/12/06 08:22:25;;;;;;;16.83;8.27;;;;;;;7.91;65.66;101584.38;5010334;28;20079;-46
2023/12/06 08:24:56;;;;;;;15.30;8.57;;;;;;;7.89;66.10;101581.69;5009763;28;20052;-46
2023/12/06 08:27:21;;;;;;;17.63;8.95;;;;;;;8.07;65.94;101591.84;5010359;28;20033;-46
2023/12/06 08:29:47;;;;;;;17.90;8.60;;;;;;;8.21;66.25;101587.13;5012486;28;20037;-48
2023/12/06 08:32:12;;;;;;;17.90;8.68;;;;;;;8.42;66.21;101591.34;5014803;28;20043;-47
2023/12/06 08:34:38;;;;;;;16.85;8.82;;;;;;;8.39;65.55;101596.47;5014776;28;20030;-45
2023/12/06 08:37:03;;;;;;;15.60;8.50;;;;;;;8.45;65.55;101599.28;5013779;28;20034;-49
2023/12/06 08:39:28;;;;;;;18.38;9.02;;;;;;;8.55;66.05;101597.84;5015053;28;20053;-43
2023/12/06 08:41:54;;;;;;;16.55;8.45;;;;;;;8.48;65.49;101599.34;5014228;28;20038;-48
2023/12/06 08:44:19;;;;;;;15.18;7.93;;;;;;;8.51;65.33;101606.38;5018109;28;20038;-44
2023/12/06 08:46:44;;;;;;;17.08;8.00;;;;;;;8.59;65.54;101604.06;5018367;28;20038;-49
2023/12/06 08:49:10;;;;;;;16.15;7.80;;;;;;;8.80;65.29;101608.22;5028018;28;20037;-49
2023/12/06 08:51:35;;;;;;;15.65;8.30;;;;;;;8.66;64.80;101611.22;5022363;28;20033;-45
2023/12/06 08:54:00;;;;;;;17.42;8.43;;;;;;;8.64;65.53;101616.34;5013932;28;20399;-44
2023/12/06 08:56:26;;;;;;;20.80;8.55;;;;;;;8.58;65.61;101610.97;5015250;28;20069;-44
2023/12/06 08:58:52;;;;;;;14.55;8.00;;;;;;;8.64;65.49;101615.47;5013552;28;20034;-44
2023/12/06 09:01:17;;;;;;;19.63;8.30;;;;;;;8.83;65.03;101621.34;5013054;28;20030;-46
2023/12/06 09:03:43;;;;;;;19.75;8.43;;;;;;;8.64;65.34;101613.75;5013685;28;20034;-46
2023/12/06 09:06:09;;;;;;;21.92;8.73;;;;;;;8.83;65.47;101617.84;5012089;28;20404;-47
2023/12/06 09:08:34;;;;;;;17.25;8.10;;;;;;;8.61;64.79;101621.44;5014208;28;20034;-45
2023/12/06 09:10:59;;;;;;;19.63;8.00;;;;;;;8.96;64.48;101620.00;5013906;28;20038;-47
2023/12/06 09:13:25;;;;;;;17.60;8.05;;;;;;;9.05;63.45;101617.69;5015544;28;20049;-47
2023/12/06 09:15:50;;;;;;;16.95;7.72;;;;;;;8.85;63.48;101629.16;5013904;28;20030;-45
2023/12/06 09:18:15;;;;;;;15.55;7.90;;;;;;;8.99;63.15;101629.59;5014163;28;20030;-45
2023/12/06 09:20:42;;;;;;;15.88;7.13;;;;;;;8.95;63.70;101628.63;5015025;28;20026;-45
2023/12/06 09:23:08;;;;;;;15.27;7.15;;;;;;;9.08;64.67;101614.31;5013954;28;20057;-46
2023/12/06 09:25:33;;;;;;;19.95;7.47;;;;;;;9.20;64.91;101622.50;5013549;28;20493;-50
2023/12/06 09:27:58;;;;;;;12.88;6.95;;;;;;;9.26;64.83;101630.47;5012861;28;20081;-47
2023/12/06 09:30:24;;;;;;;19.05;6.68;;;;;;;9.55;64.30;101627.03;5013124;28;20022;-47
2023/12/06 09:32:50;;;;;;;14.02;6.80;;;;;;;9.45;64.11;101627.59;5012695;28;20038;-46
2023/12/06 09:35:15;;;;;;;14.18;6.97;;;;;;;9.56;63.99;101638.31;5013269;28;20034;-47
2023/12/06 09:37:42;;;;;;;14.77;6.95;;;;;;;9.65;63.08;101636.84;5013028;28;20034;-44
2023/12/06 09:40:08;;;;;;;13.60;7.03;;;;;;;9.69;62.99;101641.34;5012000;28;20500;-49
2023/12/06 09:42:39;;;;;;;15.45;6.72;;;;;;;9.69;63.00;101645.66;5012603;28;20041;-47
2023/12/06 09:45:05;;;;;;;13.88;7.20;;;;;;;9.45;63.44;101643.22;5012678;28;20457;-48
2023/12/06 09:47:31;;;;;;;15.15;6.88;;;;;;;9.58;63.32;101645.31;5011763;28;20065;-48
2023/12/06 09:49:56;;;;;;;17.55;7.40;;;;;;;9.60;63.26;101650.56;5012371;28;20546;-47
2023/12/06 09:52:22;;;;;;;13.65;7.50;;;;;;;9.66;63.64;101641.22;5013417;28;20050;-45
2023/12/06 09:54:49;;;;;;;12.75;6.63;;;;;;;9.65;63.31;101649.00;5013125;28;20489;-44
2023/12/06 09:57:16;;;;;;;14.48;5.70;;;;;;;9.49;63.18;101651.97;5013002;28;20041;-49
2023/12/06 09:59:41;;;;;;;11.23;5.97;;;;;;;9.46;63.14;101652.75;5012794;28;20026;-44
2023/12/06 10:02:07;;;;;;;10.65;5.30;;;;;;;9.43;62.65;101657.00;5012249;28;20037;-46
2023/12/06 10:04:33;;;;;;;9.77;5.25;;;;;;;9.56;62.66;101660.03;5012769;28;20088;-44
2023/12/06 10:06:59;;;;;;;9.73;5.53;;;;;;;9.68;62.33;101660.41;5012170;28;20092;-44
2023/12/06 10:09:24;;;;;;;12.50;5.18;;;;;;;9.57;62.17;101660.91;5012763;28;20030;-45
2023/12/06 10:11:50;;;;;;;9.50;4.90;;;;;;;9.82;61.32;101658.16;5011553;28;20046;-46
2023/12/06 10:14:19;;;;;;;13.82;4.97;;;;;;;9.64;62.22;101655.91;5012906;28;20480;-50
2023/12/06 10:16:47;;;;;;;12.43;4.88;;;;;;;9.53;61.99;101651.22;5011827;28;20033;-45
2023/12/06 10:19:19;;;;;;;12.60;4.75;;;;;;;9.52;62.71;101657.25;5012254;28;20042;-45
2023/12/06 10:21:49;;;;;;;8.45;4.47;;;;;;;9.59;62.54;101656.63;5011733;28;20025;-47
2023/12/06 10:24:14;;;;;;;10.52;4.53;;;;;;;9.75;61.94;101648.44;5010945;28;20034;-44
2023/12/06 10:26:40;;;;;;;9.23;4.28;;;;;;;9.62;61.45;101649.81;5012027;28;20037;-45
2023/12/06 10:29:05;;;;;;;9.93;4.38;;;;;;;9.86;61.32;101654.84;5010330;28;20045;-44
2023/12/06 10:31:45;;;;;;;11.88;4.50;;;;;;;9.83;60.71;101646.91;5011389;28;20045;-46
2023/12/06 10:34:11;;;;;;;9.27;4.30;;;;;;;10.26;59.53;101656.84;5011830;28;20545;-51
2023/12/06 10:36:37;;;;;;;9.52;4.65;;;;;;;10.01;61.35;101644.84;5011894;28;20121;-48
2023/12/06 10:39:09;;;;;;;9.88;4.32;;;;;;;10.20;61.48;101653.19;5011484;28;20030;-48
2023/12/06 10:41:38;;;;;;;11.80;4.53;;;;;;;10.29;61.49;101648.25;5010390;28;20120;-46
2023/12/06 10:44:05;;;;;;;9.68;4.43;;;;;;;10.15;62.20;101645.22;5012192;28;20030;-47
2023/12/06 10:46:32;;;;;;;10.73;4.40;;;;;;;10.40;62.14;101644.19;5013899;28;20033;-49
2023/12/06 10:49:00;;;;;;;8.10;4.28;;;;;;;10.48;61.87;101651.38;5013731;28;20040;-49
2023/12/06 10:51:28;;;;;;;8.10;4.10;;;;;;;10.63;62.30;101655.19;5011659;28;20042;-47
2023/12/06 10:53:54;;;;;;;12.60;4.00;;;;;;;10.69;60.52;101652.75;5011598;28;20524;-45
2023/12/06 10:56:21;;;;;;;9.98;3.78;;;;;;;11.03;59.97;101657.09;5011362;28;20049;-45
2023/12/06 10:58:48;;;;;;;8.40;3.80;;;;;;;10.90;58.99;101642.88;5010973;28;20405;-45
2023/12/06 11:01:15;;;;;;;8.25;3.90;;;;;;;11.29;58.31;101643.78;5011093;28;20069;-46
2023/12/06 11:03:40;;;;;;;7.50;3.47;;;;;;;11.16;57.64;101646.09;5011272;28;20042;-45
2023/12/06 11:06:21;;;;;;;7.40;3.65;;;;;;;10.93;56.60;101649.03;5011152;28;20026;-49
2023/12/06 11:08:53;;;;;;;11.43;4.18;;;;;;;11.32;56.47;101645.59;5011593;28;20048;-44
2023/12/06 11:11:48;;;;;;;9.90;3.72;;;;;;;10.78;58.80;101653.88;5009979;28;20121;-46
2023/12/06 11:14:32;;;;;;;9.32;3.40;;;;;;;10.73;56.92;101662.44;5012512;28;20129;-46
2023/12/06 11:17:20;;;;;;;7.50;3.07;;;;;;;10.55;56.88;101662.84;5032238;28;20037;-46